Terminal Aerodrome Forecast
Issued by NWS Quad Cities IA IL

Home | Current Version | Previous Version | Text Only | Print | Product List | Glossary On
Versions: 1 2 3 4 5 6 7 8 9 10 11 12 13 14 15 16 17 18 19 20 21 22 23 24 25 26 27 28 29 30 31
000
FTUS43 KDVN 221515 AAA
TAFMLI
TAF AMD
KMLI 221515Z 2215/2312 35004KT 4SM BR SCT010 BKN070
      TEMPO 2215/2218 2SM BR BKN010
     FM221800 35006KT 6SM BR SCT020 BKN070
     FM230100 33009KT P6SM BKN020
     FM230400 33008KT 4SM BR BKN009=

USA.gov is the U.S. government's official web portal to all federal, state and local government web resources and services.